OAL242 SGAS-SLPO
Flight info
| Callsign | OAL242 |
|---|---|
| Flight time | 1h 34m |
| Altitude | 36000 |
| Route | SUSRU SUSRU UM548 DAKRO |
| Aircraft | A319/M-SDE3FGHIRWY/LB1 |
Departure
| Time | 2026-05-04 12:19 |
|---|---|
| Airport | Silvio Pettirossi International Airport (SGAS) |
Arrival
| Time | 2026-05-04 13:53 |
|---|---|
| Airport | Capitan Nicolas Rojas Airport (SLPO) |
| Time | Latitude | Longitude | Altitude | Speed | Heading |
|---|---|---|---|---|---|
| 2026-05-04 12:19 | -25.07896 | -57.48541 | 7781 ft | 263 kts | 345° |
| 2026-05-04 12:19 | -25.06249 | -57.49479 | 8611 ft | 268 kts | 321° |
| 2026-05-04 12:19 | -25.05114 | -57.51133 | 9402 ft | 278 kts | 297° |
| 2026-05-04 12:19 | -25.04474 | -57.53167 | 10207 ft | 282 kts | 291° |
| 2026-05-04 12:20 | -25.03849 | -57.55278 | 10625 ft | 300 kts | 290° |
| 2026-05-04 12:20 | -25.03172 | -57.57536 | 10922 ft | 318 kts | 290° |
| 2026-05-04 12:20 | -25.02468 | -57.59875 | 11513 ft | 324 kts | 289° |
| 2026-05-04 12:20 | -25.01754 | -57.62245 | 12167 ft | 328 kts | 289° |
| 2026-05-04 12:21 | -25.01028 | -57.64654 | 12790 ft | 332 kts | 288° |
| 2026-05-04 12:21 | -25.00294 | -57.67083 | 13417 ft | 336 kts | 288° |
| 2026-05-04 12:21 | -24.99551 | -57.69541 | 14028 ft | 340 kts | 288° |
| 2026-05-04 12:21 | -24.98800 | -57.72022 | 14628 ft | 343 kts | 287° |
| 2026-05-04 12:22 | -24.98038 | -57.74533 | 15206 ft | 347 kts | 287° |
| 2026-05-04 12:22 | -24.97269 | -57.77068 | 15767 ft | 351 kts | 287° |
| 2026-05-04 12:22 | -24.96490 | -57.79631 | 16328 ft | 354 kts | 287° |
| 2026-05-04 12:22 | -24.95705 | -57.82215 | 16873 ft | 358 kts | 287° |
| 2026-05-04 12:23 | -24.94910 | -57.84836 | 17415 ft | 362 kts | 286° |
| 2026-05-04 12:23 | -24.94105 | -57.87476 | 17945 ft | 366 kts | 286° |
| 2026-05-04 12:23 | -24.93289 | -57.90148 | 18486 ft | 369 kts | 286° |
| 2026-05-04 12:23 | -24.92470 | -57.92835 | 19013 ft | 372 kts | 286° |
| 2026-05-04 12:24 | -24.91642 | -57.95544 | 19571 ft | 374 kts | 286° |
| 2026-05-04 12:24 | -24.90809 | -57.98268 | 20132 ft | 376 kts | 286° |
| 2026-05-04 12:24 | -24.89973 | -58.00999 | 20696 ft | 377 kts | 285° |
| 2026-05-04 12:24 | -24.89133 | -58.03740 | 21243 ft | 379 kts | 285° |
| 2026-05-04 12:25 | -24.88288 | -58.06504 | 21767 ft | 381 kts | 285° |
| 2026-05-04 12:25 | -24.87444 | -58.09270 | 22279 ft | 382 kts | 285° |
| 2026-05-04 12:25 | -24.86595 | -58.12051 | 22785 ft | 384 kts | 285° |
| 2026-05-04 12:25 | -24.85743 | -58.14836 | 23297 ft | 385 kts | 285° |
| 2026-05-04 12:26 | -24.84887 | -58.17630 | 23781 ft | 387 kts | 285° |
| 2026-05-04 12:26 | -24.84023 | -58.20440 | 24249 ft | 388 kts | 285° |
| 2026-05-04 12:26 | -24.83152 | -58.23265 | 24707 ft | 390 kts | 285° |
| 2026-05-04 12:26 | -24.82273 | -58.26097 | 25150 ft | 392 kts | 285° |
| 2026-05-04 12:27 | -24.81260 | -58.28893 | 25576 ft | 397 kts | 293° |
| 2026-05-04 12:27 | -24.79763 | -58.31471 | 25988 ft | 405 kts | 304° |
| 2026-05-04 12:27 | -24.77802 | -58.33736 | 26395 ft | 411 kts | 311° |
| 2026-05-04 12:27 | -24.75695 | -58.35938 | 26795 ft | 414 kts | 311° |
| 2026-05-04 12:28 | -24.73629 | -58.38096 | 27189 ft | 415 kts | 311° |
| 2026-05-04 12:28 | -24.71530 | -58.40288 | 27571 ft | 417 kts | 311° |
| 2026-05-04 12:28 | -24.69393 | -58.42521 | 27954 ft | 419 kts | 311° |
| 2026-05-04 12:28 | -24.67274 | -58.44733 | 28332 ft | 421 kts | 311° |
| 2026-05-04 12:29 | -24.65146 | -58.46956 | 28715 ft | 423 kts | 311° |
| 2026-05-04 12:29 | -24.63013 | -58.49187 | 29105 ft | 424 kts | 311° |
| 2026-05-04 12:29 | -24.60871 | -58.51429 | 29490 ft | 426 kts | 311° |
| 2026-05-04 12:29 | -24.58721 | -58.53677 | 29856 ft | 428 kts | 311° |
| 2026-05-04 12:30 | -24.56559 | -58.55935 | 30220 ft | 430 kts | 311° |
| 2026-05-04 12:30 | -24.54390 | -58.58194 | 30565 ft | 431 kts | 311° |
| 2026-05-04 12:30 | -24.52205 | -58.60467 | 30885 ft | 434 kts | 311° |
| 2026-05-04 12:30 | -24.50014 | -58.62745 | 31202 ft | 435 kts | 310° |
| 2026-05-04 12:31 | -24.47808 | -58.65042 | 31514 ft | 437 kts | 310° |
| 2026-05-04 12:31 | -24.45598 | -58.67345 | 31863 ft | 438 kts | 310° |
| 2026-05-04 12:31 | -24.43393 | -58.69641 | 32302 ft | 436 kts | 310° |
| 2026-05-04 12:31 | -24.41199 | -58.71924 | 32726 ft | 434 kts | 310° |
| 2026-05-04 12:32 | -24.39007 | -58.74202 | 33148 ft | 433 kts | 310° |
| 2026-05-04 12:32 | -24.34647 | -58.78732 | 33990 ft | 431 kts | 310° |
| 2026-05-04 12:32 | -24.32475 | -58.80986 | 34399 ft | 430 kts | 309° |
| 2026-05-04 12:33 | -24.30304 | -58.83242 | 34803 ft | 428 kts | 309° |
| 2026-05-04 12:33 | -24.28149 | -58.85475 | 35247 ft | 426 kts | 309° |
| 2026-05-04 12:33 | -24.25999 | -58.87697 | 35656 ft | 424 kts | 309° |
| 2026-05-04 12:33 | -24.23857 | -58.89909 | 35948 ft | 423 kts | 309° |
| 2026-05-04 12:34 | -24.21730 | -58.92104 | 36011 ft | 418 kts | 309° |
| 2026-05-04 12:34 | -24.18314 | -58.95634 | 36019 ft | 414 kts | 308° |
| 2026-05-04 12:35 | -24.14098 | -59.00102 | 36018 ft | 412 kts | 308° |
| 2026-05-04 12:35 | -24.10004 | -59.04489 | 36016 ft | 412 kts | 308° |
| 2026-05-04 12:36 | -24.05892 | -59.08864 | 36026 ft | 412 kts | 308° |
| 2026-05-04 12:36 | -24.01831 | -59.13157 | 36028 ft | 412 kts | 308° |
| 2026-05-04 12:37 | -23.97663 | -59.17559 | 36029 ft | 412 kts | 308° |
| 2026-05-04 12:37 | -23.93579 | -59.21877 | 36024 ft | 412 kts | 308° |
| 2026-05-04 12:38 | -23.89429 | -59.26261 | 36022 ft | 412 kts | 308° |
| 2026-05-04 12:38 | -23.85299 | -59.30613 | 36025 ft | 412 kts | 308° |
| 2026-05-04 12:39 | -23.81173 | -59.34951 | 36024 ft | 412 kts | 308° |
| 2026-05-04 12:39 | -23.77044 | -59.39295 | 36021 ft | 412 kts | 309° |
| 2026-05-04 12:40 | -23.72916 | -59.43630 | 36022 ft | 412 kts | 309° |
| 2026-05-04 12:40 | -23.68819 | -59.47937 | 36022 ft | 412 kts | 308° |
| 2026-05-04 12:41 | -23.64687 | -59.52271 | 36023 ft | 412 kts | 309° |
| 2026-05-04 12:41 | -23.60555 | -59.56605 | 36023 ft | 412 kts | 308° |
| 2026-05-04 12:42 | -23.56424 | -59.60937 | 36023 ft | 412 kts | 309° |
| 2026-05-04 12:42 | -23.52295 | -59.65260 | 36024 ft | 411 kts | 309° |
| 2026-05-04 12:43 | -23.48158 | -59.69578 | 36025 ft | 412 kts | 309° |
| 2026-05-04 12:43 | -23.44029 | -59.73902 | 36026 ft | 412 kts | 309° |
| 2026-05-04 12:44 | -23.39899 | -59.78221 | 36027 ft | 412 kts | 309° |
| 2026-05-04 12:44 | -23.35759 | -59.82534 | 36029 ft | 412 kts | 309° |
| 2026-05-04 12:45 | -23.31616 | -59.86846 | 36031 ft | 412 kts | 309° |
| 2026-05-04 12:45 | -23.27481 | -59.91156 | 36032 ft | 412 kts | 308° |
| 2026-05-04 12:46 | -23.23351 | -59.95468 | 36031 ft | 412 kts | 309° |
| 2026-05-04 12:46 | -23.19211 | -59.99764 | 36034 ft | 411 kts | 309° |
| 2026-05-04 12:47 | -23.15064 | -60.04059 | 36049 ft | 411 kts | 309° |
| 2026-05-04 12:47 | -23.10928 | -60.08350 | 36037 ft | 411 kts | 309° |
| 2026-05-04 12:48 | -23.06800 | -60.12633 | 36037 ft | 410 kts | 309° |
| 2026-05-04 12:48 | -23.02672 | -60.16908 | 36036 ft | 410 kts | 309° |
| 2026-05-04 12:49 | -22.98544 | -60.21175 | 36047 ft | 409 kts | 309° |
| 2026-05-04 12:49 | -22.95073 | -60.25898 | 36054 ft | 395 kts | 295° |
| 2026-05-04 12:50 | -22.92157 | -60.30942 | 36054 ft | 394 kts | 295° |
| 2026-05-04 12:50 | -22.89225 | -60.36015 | 36050 ft | 394 kts | 295° |
| 2026-05-04 12:51 | -22.86306 | -60.41049 | 36048 ft | 394 kts | 296° |
| 2026-05-04 12:51 | -22.83392 | -60.46066 | 36042 ft | 393 kts | 296° |
| 2026-05-04 12:52 | -22.80472 | -60.51079 | 36037 ft | 393 kts | 296° |
| 2026-05-04 12:52 | -22.77550 | -60.56098 | 36035 ft | 393 kts | 296° |
| 2026-05-04 12:53 | -22.74632 | -60.61106 | 36035 ft | 393 kts | 296° |
| 2026-05-04 12:53 | -22.71714 | -60.66115 | 36035 ft | 393 kts | 296° |
| 2026-05-04 12:54 | -22.68793 | -60.71123 | 36035 ft | 393 kts | 296° |
| 2026-05-04 12:54 | -22.65869 | -60.76125 | 36035 ft | 393 kts | 296° |
| 2026-05-04 12:55 | -22.62943 | -60.81124 | 36034 ft | 393 kts | 296° |
| 2026-05-04 12:55 | -22.60014 | -60.86121 | 36034 ft | 393 kts | 296° |
| 2026-05-04 12:56 | -22.57093 | -60.91116 | 36034 ft | 393 kts | 296° |
| 2026-05-04 12:56 | -22.54167 | -60.96110 | 36033 ft | 393 kts | 296° |
| 2026-05-04 12:57 | -22.51237 | -61.01102 | 36034 ft | 393 kts | 296° |
| 2026-05-04 12:57 | -22.48300 | -61.06090 | 36033 ft | 393 kts | 296° |
| 2026-05-04 12:58 | -22.45364 | -61.11067 | 36033 ft | 393 kts | 296° |
| 2026-05-04 12:58 | -22.42432 | -61.16052 | 36033 ft | 393 kts | 296° |
| 2026-05-04 12:59 | -22.39497 | -61.21041 | 36033 ft | 393 kts | 296° |
| 2026-05-04 12:59 | -22.36542 | -61.26055 | 36034 ft | 393 kts | 296° |
| 2026-05-04 13:00 | -22.33608 | -61.31025 | 36034 ft | 393 kts | 296° |
| 2026-05-04 13:00 | -22.30666 | -61.35995 | 36034 ft | 393 kts | 296° |
| 2026-05-04 13:01 | -22.27722 | -61.40971 | 36033 ft | 393 kts | 296° |
| 2026-05-04 13:01 | -22.24782 | -61.45940 | 36033 ft | 393 kts | 296° |
| 2026-05-04 13:02 | -22.21841 | -61.50913 | 36034 ft | 393 kts | 296° |
| 2026-05-04 13:02 | -22.18898 | -61.55874 | 36033 ft | 393 kts | 296° |
| 2026-05-04 13:03 | -22.15957 | -61.60839 | 36034 ft | 393 kts | 296° |
| 2026-05-04 13:03 | -22.13013 | -61.65797 | 36035 ft | 393 kts | 296° |
| 2026-05-04 13:04 | -22.10061 | -61.70759 | 36034 ft | 393 kts | 296° |
| 2026-05-04 13:04 | -22.07108 | -61.75710 | 36034 ft | 393 kts | 296° |
| 2026-05-04 13:05 | -22.04154 | -61.80665 | 36034 ft | 393 kts | 296° |
| 2026-05-04 13:05 | -22.01201 | -61.85613 | 36034 ft | 393 kts | 296° |
| 2026-05-04 13:06 | -21.98241 | -61.90556 | 36034 ft | 393 kts | 296° |
| 2026-05-04 13:06 | -21.95287 | -61.95502 | 36035 ft | 392 kts | 296° |
| 2026-05-04 13:07 | -21.92815 | -61.99646 | 36036 ft | 392 kts | 296° |
| 2026-05-04 13:07 | -21.89377 | -62.05395 | 36035 ft | 392 kts | 296° |
| 2026-05-04 13:08 | -21.86899 | -62.09531 | 36035 ft | 392 kts | 296° |
| 2026-05-04 13:08 | -21.83936 | -62.14467 | 36035 ft | 392 kts | 296° |
| 2026-05-04 13:09 | -21.80970 | -62.19401 | 36035 ft | 392 kts | 296° |
| 2026-05-04 13:09 | -21.78005 | -62.24331 | 36034 ft | 392 kts | 296° |
| 2026-05-04 13:10 | -21.75039 | -62.29260 | 36034 ft | 392 kts | 296° |
| 2026-05-04 13:10 | -21.72071 | -62.34192 | 36036 ft | 392 kts | 296° |
| 2026-05-04 13:11 | -21.69107 | -62.39119 | 36035 ft | 392 kts | 296° |
| 2026-05-04 13:11 | -21.66140 | -62.44042 | 36035 ft | 392 kts | 296° |
| 2026-05-04 13:12 | -21.63176 | -62.48965 | 36036 ft | 392 kts | 296° |
| 2026-05-04 13:12 | -21.60201 | -62.53879 | 36035 ft | 392 kts | 296° |
| 2026-05-04 13:13 | -21.57220 | -62.58788 | 36035 ft | 392 kts | 296° |
| 2026-05-04 13:13 | -21.54238 | -62.63702 | 36035 ft | 392 kts | 296° |
| 2026-05-04 13:14 | -21.51259 | -62.68611 | 36035 ft | 392 kts | 296° |
| 2026-05-04 13:14 | -21.48266 | -62.73548 | 36035 ft | 392 kts | 296° |
| 2026-05-04 13:15 | -21.45285 | -62.78453 | 36035 ft | 392 kts | 296° |
| 2026-05-04 13:15 | -21.42300 | -62.83358 | 36036 ft | 392 kts | 296° |
| 2026-05-04 13:16 | -21.39326 | -62.88265 | 36036 ft | 392 kts | 296° |
| 2026-05-04 13:16 | -21.36345 | -62.93167 | 36035 ft | 392 kts | 296° |
| 2026-05-04 13:17 | -21.33350 | -62.98054 | 36035 ft | 392 kts | 296° |
| 2026-05-04 13:17 | -21.30364 | -63.02949 | 36036 ft | 392 kts | 296° |
| 2026-05-04 13:18 | -21.27437 | -63.07877 | 36037 ft | 391 kts | 295° |
| 2026-05-04 13:18 | -21.24567 | -63.12794 | 36036 ft | 391 kts | 295° |
| 2026-05-04 13:19 | -21.21673 | -63.17735 | 36036 ft | 391 kts | 296° |
| 2026-05-04 13:19 | -21.18785 | -63.22612 | 36037 ft | 391 kts | 296° |
| 2026-05-04 13:20 | -21.15911 | -63.27461 | 36037 ft | 391 kts | 296° |
| 2026-05-04 13:20 | -21.12954 | -63.32469 | 36036 ft | 391 kts | 296° |
| 2026-05-04 13:21 | -21.10060 | -63.37356 | 36037 ft | 391 kts | 296° |
| 2026-05-04 13:21 | -21.07147 | -63.42284 | 36037 ft | 391 kts | 296° |
| 2026-05-04 13:22 | -21.04234 | -63.47199 | 36032 ft | 390 kts | 296° |
| 2026-05-04 13:22 | -21.01360 | -63.52043 | 36045 ft | 391 kts | 296° |
| 2026-05-04 13:23 | -20.98422 | -63.56986 | 36035 ft | 391 kts | 296° |
| 2026-05-04 13:23 | -20.95507 | -63.61890 | 36037 ft | 391 kts | 296° |
| 2026-05-04 13:24 | -20.92590 | -63.66798 | 36036 ft | 391 kts | 296° |
| 2026-05-04 13:24 | -20.89668 | -63.71702 | 36036 ft | 391 kts | 296° |
| 2026-05-04 13:25 | -20.85287 | -63.79049 | 36036 ft | 391 kts | 296° |
| 2026-05-04 13:25 | -20.82363 | -63.83949 | 36036 ft | 391 kts | 296° |
| 2026-05-04 13:26 | -20.79435 | -63.88841 | 36037 ft | 391 kts | 296° |
| 2026-05-04 13:26 | -20.76508 | -63.93739 | 36037 ft | 391 kts | 296° |
| 2026-05-04 13:27 | -20.73588 | -63.98627 | 36039 ft | 390 kts | 296° |
| 2026-05-04 13:27 | -20.70658 | -64.03514 | 36036 ft | 390 kts | 296° |
| 2026-05-04 13:28 | -20.67730 | -64.08400 | 36035 ft | 390 kts | 296° |
| 2026-05-04 13:28 | -20.64803 | -64.13288 | 36034 ft | 391 kts | 296° |
| 2026-05-04 13:29 | -20.61920 | -64.18153 | 36034 ft | 390 kts | 296° |
| 2026-05-04 13:29 | -20.59011 | -64.23063 | 36034 ft | 390 kts | 296° |
| 2026-05-04 13:30 | -20.56103 | -64.27957 | 36033 ft | 390 kts | 296° |
| 2026-05-04 13:30 | -20.53190 | -64.32843 | 36033 ft | 390 kts | 296° |
| 2026-05-04 13:31 | -20.50293 | -64.37738 | 36031 ft | 391 kts | 296° |
| 2026-05-04 13:31 | -20.47390 | -64.42638 | 36036 ft | 391 kts | 296° |
| 2026-05-04 13:32 | -20.45935 | -64.45088 | 35831 ft | 391 kts | 296° |
| 2026-05-04 13:32 | -20.44482 | -64.47536 | 35582 ft | 391 kts | 296° |
| 2026-05-04 13:32 | -20.43028 | -64.49985 | 35332 ft | 391 kts | 296° |
| 2026-05-04 13:32 | -20.41572 | -64.52431 | 35082 ft | 390 kts | 296° |
| 2026-05-04 13:33 | -20.40101 | -64.54902 | 34825 ft | 388 kts | 296° |
| 2026-05-04 13:33 | -20.38675 | -64.57293 | 34581 ft | 386 kts | 296° |
| 2026-05-04 13:33 | -20.37240 | -64.59701 | 34330 ft | 385 kts | 296° |
| 2026-05-04 13:33 | -20.35793 | -64.62133 | 34072 ft | 383 kts | 296° |
| 2026-05-04 13:34 | -20.34385 | -64.64500 | 33824 ft | 381 kts | 295° |
| 2026-05-04 13:34 | -20.32952 | -64.66911 | 33574 ft | 379 kts | 295° |
| 2026-05-04 13:34 | -20.31546 | -64.69280 | 33325 ft | 378 kts | 295° |
| 2026-05-04 13:34 | -20.30146 | -64.71642 | 33074 ft | 376 kts | 295° |
| 2026-05-04 13:35 | -20.28755 | -64.73987 | 32829 ft | 374 kts | 295° |
| 2026-05-04 13:35 | -20.25988 | -64.78648 | 32319 ft | 371 kts | 295° |
| 2026-05-04 13:35 | -20.24610 | -64.80963 | 32071 ft | 369 kts | 295° |
| 2026-05-04 13:36 | -20.23239 | -64.83268 | 31822 ft | 367 kts | 295° |
| 2026-05-04 13:36 | -20.21878 | -64.85560 | 31566 ft | 366 kts | 295° |
| 2026-05-04 13:36 | -20.20525 | -64.87841 | 31319 ft | 364 kts | 295° |
| 2026-05-04 13:36 | -20.19174 | -64.90114 | 31080 ft | 362 kts | 295° |
| 2026-05-04 13:37 | -20.17830 | -64.92373 | 30819 ft | 360 kts | 295° |
| 2026-05-04 13:37 | -20.16489 | -64.94622 | 30567 ft | 359 kts | 295° |
| 2026-05-04 13:37 | -20.15155 | -64.96858 | 30318 ft | 357 kts | 295° |
| 2026-05-04 13:37 | -20.14273 | -64.98335 | 30150 ft | 356 kts | 295° |
| 2026-05-04 13:38 | -20.12505 | -65.01300 | 29813 ft | 354 kts | 295° |
| 2026-05-04 13:38 | -20.11195 | -65.03510 | 29558 ft | 352 kts | 295° |
| 2026-05-04 13:38 | -20.09896 | -65.05705 | 29314 ft | 351 kts | 295° |
| 2026-05-04 13:38 | -20.08602 | -65.07897 | 29066 ft | 349 kts | 295° |
| 2026-05-04 13:39 | -20.07314 | -65.10077 | 28811 ft | 347 kts | 295° |
| 2026-05-04 13:39 | -20.06028 | -65.12246 | 28563 ft | 346 kts | 295° |
| 2026-05-04 13:39 | -20.04750 | -65.14405 | 28312 ft | 344 kts | 295° |
| 2026-05-04 13:39 | -20.03478 | -65.16555 | 28060 ft | 343 kts | 295° |
| 2026-05-04 13:40 | -20.02209 | -65.18699 | 27810 ft | 341 kts | 295° |
| 2026-05-04 13:40 | -20.01373 | -65.20106 | 27648 ft | 340 kts | 295° |
| 2026-05-04 13:40 | -20.00096 | -65.22256 | 27392 ft | 339 kts | 295° |
| 2026-05-04 13:40 | -19.98839 | -65.24372 | 27140 ft | 337 kts | 295° |
| 2026-05-04 13:41 | -19.97594 | -65.26470 | 26893 ft | 335 kts | 295° |
| 2026-05-04 13:41 | -19.96349 | -65.28564 | 26641 ft | 334 kts | 295° |
| 2026-05-04 13:41 | -19.95113 | -65.30642 | 26390 ft | 332 kts | 295° |
| 2026-05-04 13:42 | -19.92673 | -65.34740 | 25813 ft | 323 kts | 294° |
| 2026-05-04 13:42 | -19.91480 | -65.36745 | 25428 ft | 320 kts | 294° |
| 2026-05-04 13:42 | -19.90297 | -65.38734 | 25056 ft | 316 kts | 294° |
| 2026-05-04 13:42 | -19.89128 | -65.40699 | 24679 ft | 313 kts | 294° |
| 2026-05-04 13:43 | -19.87967 | -65.42646 | 24290 ft | 310 kts | 294° |
| 2026-05-04 13:43 | -19.86816 | -65.44573 | 23922 ft | 308 kts | 294° |
| 2026-05-04 13:43 | -19.85672 | -65.46487 | 23549 ft | 305 kts | 294° |
| 2026-05-04 13:43 | -19.84446 | -65.48327 | 23169 ft | 309 kts | 303° |
| 2026-05-04 13:44 | -19.82813 | -65.49864 | 22790 ft | 320 kts | 316° |
| 2026-05-04 13:44 | -19.80788 | -65.50960 | 22373 ft | 334 kts | 330° |
| 2026-05-04 13:44 | -19.78464 | -65.51477 | 21927 ft | 350 kts | 346° |
| 2026-05-04 13:44 | -19.76013 | -65.51569 | 21466 ft | 352 kts | 348° |
| 2026-05-04 13:45 | -19.73564 | -65.51649 | 21009 ft | 351 kts | 348° |
| 2026-05-04 13:45 | -19.71128 | -65.51729 | 20550 ft | 350 kts | 348° |
| 2026-05-04 13:45 | -19.68691 | -65.51811 | 20092 ft | 349 kts | 347° |
| 2026-05-04 13:45 | -19.66273 | -65.51896 | 19644 ft | 348 kts | 347° |
| 2026-05-04 13:46 | -19.63862 | -65.51979 | 19196 ft | 346 kts | 347° |
| 2026-05-04 13:46 | -19.61456 | -65.52064 | 18753 ft | 346 kts | 347° |
| 2026-05-04 13:46 | -19.59049 | -65.52152 | 18299 ft | 346 kts | 347° |
| 2026-05-04 13:46 | -19.56638 | -65.52241 | 17847 ft | 347 kts | 347° |
| 2026-05-04 13:47 | -19.54269 | -65.52321 | 17730 ft | 334 kts | 347° |
| 2026-05-04 13:47 | -19.51983 | -65.52388 | 17591 ft | 323 kts | 347° |
| 2026-05-04 13:47 | -19.49781 | -65.52457 | 17442 ft | 312 kts | 346° |
| 2026-05-04 13:47 | -19.47699 | -65.52698 | 17294 ft | 284 kts | 328° |
| 2026-05-04 13:48 | -19.46183 | -65.53724 | 17171 ft | 240 kts | 299° |
| 2026-05-04 13:48 | -19.45422 | -65.55139 | 17023 ft | 210 kts | 278° |
| 2026-05-04 13:48 | -19.45311 | -65.56625 | 16746 ft | 195 kts | 260° |
| 2026-05-04 13:48 | -19.45711 | -65.57921 | 16303 ft | 179 kts | 243° |
| 2026-05-04 13:49 | -19.46367 | -65.59016 | 15957 ft | 172 kts | 241° |
| 2026-05-04 13:49 | -19.46994 | -65.60064 | 15629 ft | 164 kts | 241° |
| 2026-05-04 13:49 | -19.47562 | -65.61017 | 15365 ft | 144 kts | 241° |
| 2026-05-04 13:49 | -19.48072 | -65.61878 | 15398 ft | 134 kts | 242° |
| 2026-05-04 13:50 | -19.48542 | -65.62710 | 15191 ft | 129 kts | 243° |
| 2026-05-04 13:50 | -19.48990 | -65.63530 | 14965 ft | 128 kts | 243° |
| 2026-05-04 13:50 | -19.49456 | -65.64327 | 14684 ft | 126 kts | 242° |
| 2026-05-04 13:50 | -19.49913 | -65.65094 | 14348 ft | 121 kts | 243° |
| 2026-05-04 13:51 | -19.50338 | -65.65855 | 14124 ft | 120 kts | 242° |
| 2026-05-04 13:51 | -19.50802 | -65.66590 | 13952 ft | 120 kts | 242° |
| 2026-05-04 13:51 | -19.51268 | -65.67323 | 13703 ft | 119 kts | 241° |
| 2026-05-04 13:51 | -19.51711 | -65.68085 | 13609 ft | 121 kts | 242° |
| 2026-05-04 13:52 | -19.52616 | -65.69611 | 13233 ft | 126 kts | 241° |
| 2026-05-04 13:52 | -19.53089 | -65.70403 | 13068 ft | 131 kts | 242° |
| 2026-05-04 13:52 | -19.53591 | -65.71232 | 12838 ft | 133 kts | 240° |
| 2026-05-04 13:53 | -19.54064 | -65.71988 | 12809 ft | 108 kts | 237° |
| 2026-05-04 13:53 | -19.54327 | -65.72399 | 12831 ft | 25 kts | 234° |
| 2026-05-04 13:53 | -19.54357 | -65.72446 | 12834 ft | 4 kts | 239° |
| 2026-05-04 13:54 | -19.54377 | -65.72473 | 12836 ft | 1 kts | 197° |
| 2026-05-04 13:54 | -19.54378 | -65.72461 | 12836 ft | 4 kts | 88° |
| 2026-05-04 13:54 | -19.54258 | -65.72298 | 12826 ft | 25 kts | 56° |
| 2026-05-04 13:55 | -19.54168 | -65.72138 | 12816 ft | 23 kts | 78° |
| 2026-05-04 13:55 | -19.54269 | -65.71994 | 12813 ft | 0 kts | 111° |